createdAt,value
2017-06-04T00:00:47.124Z,91.72
2017-06-04T00:01:48.392Z,92.1
2017-06-04T00:02:49.637Z,92
2017-06-04T00:03:50.963Z,92.19
2017-06-04T00:04:52.238Z,92.48
2017-06-04T00:05:53.543Z,92.86
2017-06-04T00:06:54.790Z,93.06
2017-06-04T00:07:56.015Z,93.92
2017-06-04T00:08:57.291Z,94.12
2017-06-04T00:09:58.628Z,94.4
2017-06-04T00:10:59.910Z,94.69
2017-06-04T00:12:01.177Z,94.69
2017-06-04T00:13:02.440Z,94.79
2017-06-04T00:14:03.681Z,95.17
2017-06-04T00:15:04.946Z,95.46
2017-06-04T00:16:06.231Z,95.36
2017-06-04T00:17:07.494Z,95.26
2017-06-04T00:18:08.759Z,95.26
2017-06-04T00:19:09.995Z,95.46
2017-06-04T00:20:11.235Z,95.17
2017-06-04T00:21:12.477Z,95.07
2017-06-04T00:22:13.720Z,94.88
2017-06-04T00:23:14.970Z,94.88
2017-06-04T00:24:16.214Z,95.36
2017-06-04T00:25:17.451Z,95.55
2017-06-04T00:26:18.714Z,95.36
2017-06-04T00:27:19.940Z,95.17
2017-06-04T00:28:21.227Z,95.36
2017-06-04T00:29:22.463Z,95.17
2017-06-04T00:30:23.719Z,95.07
2017-06-04T00:31:24.951Z,95.17
2017-06-04T00:32:26.203Z,95.31
2017-06-04T00:33:27.491Z,95.31
2017-06-04T00:34:28.716Z,95.41
2017-06-04T00:35:30.004Z,95.12
2017-06-04T00:36:31.236Z,95.79
2017-06-04T00:37:32.503Z,95.21
2017-06-04T00:38:33.754Z,95.6
2017-06-04T00:39:35.016Z,96.27
2017-06-04T00:40:36.277Z,95.79
2017-06-04T00:41:37.504Z,96.08
2017-06-04T00:42:38.752Z,96.08
2017-06-04T00:43:40.027Z,96.56
2017-06-04T00:44:41.280Z,96.47
2017-06-04T00:45:42.507Z,96.75
2017-06-04T00:46:43.756Z,96.27
2017-06-04T00:47:45.132Z,96.18
2017-06-04T00:48:46.366Z,96.37
2017-06-04T00:49:47.715Z,96.08
2017-06-04T00:50:49.000Z,97.04
2017-06-04T00:51:50.235Z,96.85
2017-06-04T00:52:51.458Z,96.66
2017-06-04T00:53:52.744Z,97.52
2017-06-04T00:54:54.041Z,97.33
2017-06-04T00:55:55.268Z,97.14
2017-06-04T00:56:56.537Z,97.14
2017-06-04T00:57:57.765Z,97.52
2017-06-04T00:58:59.004Z,97.61
2017-06-04T01:00:00.260Z,97.61
2017-06-04T01:01:01.503Z,97.52
2017-06-04T01:02:02.852Z,97.61
2017-06-04T01:03:04.072Z,97.23
2017-06-04T01:04:05.317Z,97.61
2017-06-04T01:05:06.573Z,98
2017-06-04T01:06:07.804Z,97.71
2017-06-04T01:07:09.153Z,98
2017-06-04T01:08:10.412Z,98
2017-06-04T01:09:11.655Z,98
2017-06-04T01:10:12.891Z,98.67
2017-06-04T01:11:14.141Z,98.05
2017-06-04T01:12:15.396Z,98.48
2017-06-04T01:13:16.628Z,98.67
2017-06-04T01:14:18.025Z,98.96
2017-06-04T01:15:19.162Z,98.48
2017-06-04T01:16:20.396Z,98.48
2017-06-04T01:17:21.635Z,98.28
2017-06-04T01:18:22.907Z,98.67
2017-06-04T01:19:24.131Z,98.77
2017-06-04T01:20:25.420Z,98.38
2017-06-04T01:21:26.673Z,98.77
2017-06-04T01:22:27.917Z,98.91
2017-06-04T01:23:29.167Z,99.1
2017-06-04T01:24:30.420Z,99.01
2017-06-04T01:25:31.664Z,99.01
2017-06-04T01:26:32.914Z,98.91
2017-06-04T01:27:34.203Z,99.1
2017-06-04T01:28:35.475Z,99.01
2017-06-04T01:29:36.727Z,99.29
2017-06-04T01:30:37.962Z,99.29
2017-06-04T01:31:39.249Z,99.77
2017-06-04T01:32:40.496Z,99.58
2017-06-04T01:33:41.765Z,99.77
2017-06-04T01:34:43.044Z,99.68
2017-06-04T01:35:44.299Z,99.1
2017-06-04T01:36:45.543Z,98.72
2017-06-04T01:37:46.833Z,98.52
2017-06-04T01:38:48.139Z,98.24
2017-06-04T01:39:49.431Z,97.85
2017-06-04T01:40:50.670Z,97.85
2017-06-04T01:41:51.923Z,98.24
2017-06-04T01:42:53.157Z,98.1
2017-06-04T01:43:54.409Z,97.8
2017-06-04T01:44:55.659Z,97.33
2017-06-04T01:45:56.934Z,97.52
2017-06-04T01:46:58.429Z,97.23
2017-06-04T01:47:59.673Z,97.14
2017-06-04T01:49:00.909Z,97.42
2017-06-04T01:50:02.156Z,97.04
2017-06-04T01:51:03.421Z,96.84
2017-06-04T01:52:04.708Z,97.14
2017-06-04T01:53:05.950Z,96.94
2017-06-04T01:54:07.212Z,96.18
2017-06-04T01:55:08.459Z,96.08
2017-06-04T01:56:09.702Z,96.37
2017-06-04T01:57:11.035Z,96.27
2017-06-04T01:58:12.312Z,96.08
2017-06-04T01:59:13.679Z,96.27
2017-06-04T02:00:14.808Z,95.98
2017-06-04T02:01:16.046Z,95.98
2017-06-04T02:02:17.280Z,96.84
2017-06-04T02:03:18.557Z,97.71
2017-06-04T02:04:19.786Z,97.33
2017-06-04T02:05:21.058Z,96.94
2017-06-04T02:06:22.266Z,96.94
2017-06-04T02:07:23.491Z,97.23
2017-06-04T02:12:10.535Z,95.79
2017-06-04T02:13:11.784Z,95.94
2017-06-04T02:14:13.033Z,96.32
2017-06-04T02:15:14.340Z,96.51
2017-06-04T02:16:15.638Z,96.61
2017-06-04T02:17:16.885Z,96.22
2017-06-04T02:18:18.130Z,96.7
2017-06-04T02:19:19.376Z,96.8
2017-06-04T02:20:20.637Z,96.51
2017-06-04T02:21:22.008Z,96.51
2017-06-04T02:22:23.312Z,96.89
2017-06-04T02:23:24.635Z,97.56
2017-06-04T02:24:25.866Z,97.18
2017-06-04T02:25:27.341Z,96.99
2017-06-04T02:26:28.699Z,97.38
2017-06-04T02:27:29.931Z,97.38
2017-06-04T02:28:31.166Z,97.28
2017-06-04T02:29:32.408Z,97.38
2017-06-04T02:30:33.645Z,97.28
2017-06-04T02:31:35.013Z,97.66
2017-06-04T02:32:36.234Z,97.47
2017-06-04T02:33:37.474Z,97.38
2017-06-04T02:34:38.789Z,97.28
2017-06-04T02:35:40.027Z,97.09
2017-06-04T02:36:41.297Z,96.99
2017-06-04T02:37:42.639Z,97.47
2017-06-04T02:38:43.992Z,97.18
2017-06-04T02:39:45.258Z,97.18
2017-06-04T02:40:46.503Z,96.42
2017-06-04T02:41:47.723Z,96.61
2017-06-04T02:42:48.974Z,96.7
2017-06-04T02:43:50.299Z,96.13
2017-06-04T02:44:51.538Z,96.51
2017-06-04T02:45:52.822Z,96.32
2017-06-04T02:46:54.086Z,95.65
2017-06-04T02:47:55.329Z,95.17
2017-06-04T02:48:56.574Z,94.6
2017-06-04T02:49:57.834Z,94.31
2017-06-04T02:50:59.069Z,94.5
2017-06-04T02:52:00.433Z,95.07
2017-06-04T02:53:01.727Z,95.17
2017-06-04T02:54:02.971Z,96.13
2017-06-04T02:55:04.242Z,95.84
2017-06-04T02:56:05.507Z,95.94
2017-06-04T02:57:06.743Z,95.65
2017-06-04T02:58:07.985Z,95.84
2017-06-04T02:59:09.275Z,95.65
2017-06-04T03:00:10.497Z,95.89
2017-06-04T03:01:11.749Z,95.61
2017-06-04T03:02:13.022Z,96.13
2017-06-04T03:03:14.285Z,96.08
2017-06-04T03:04:15.532Z,96.47
2017-06-04T03:05:16.783Z,96.75
2017-06-04T03:06:18.016Z,96.56
2017-06-04T03:07:19.258Z,96.18
2017-06-04T03:08:20.506Z,96.27
2017-06-04T03:09:21.805Z,96.18
2017-06-04T03:10:23.080Z,96.08
2017-06-04T03:11:24.326Z,96.47
2017-06-04T03:12:25.566Z,96.27
2017-06-04T03:13:26.822Z,96.08
2017-06-04T03:14:28.037Z,96.27
2017-06-04T03:15:29.341Z,96.47
2017-06-04T03:16:30.643Z,95.7
2017-06-04T03:17:31.888Z,95.79
2017-06-04T03:18:33.164Z,96.47
2017-06-04T03:19:34.405Z,96.18
2017-06-04T03:20:35.646Z,96.94
2017-06-04T03:21:36.869Z,97.42
2017-06-04T03:22:38.307Z,97.52
2017-06-04T03:23:39.703Z,97.52
2017-06-04T03:24:40.952Z,97.13
2017-06-04T03:25:42.183Z,96.75
2017-06-04T03:26:43.438Z,96.56
2017-06-04T03:27:44.691Z,96.75
2017-06-04T03:28:46.016Z,96.56
2017-06-04T03:29:47.256Z,97.04
2017-06-04T03:30:48.488Z,97.23
2017-06-04T03:31:49.735Z,96.84
2017-06-04T03:32:50.970Z,97.52
2017-06-04T03:33:52.378Z,97.33
2017-06-04T03:34:53.627Z,97.52
2017-06-04T03:35:54.923Z,97.61
2017-06-04T03:36:56.178Z,97.61
2017-06-04T03:37:57.398Z,97.42
2017-06-04T03:38:58.707Z,97.42
2017-06-04T03:40:00.184Z,97.04
2017-06-04T03:41:01.440Z,96.94
2017-06-04T03:42:02.670Z,97.56
2017-06-04T03:43:03.930Z,97.09
2017-06-04T03:44:05.169Z,97.38
2017-06-04T03:45:06.538Z,97.47
2017-06-04T03:46:07.752Z,97.47
2017-06-04T03:47:09.157Z,98.14
2017-06-04T03:48:10.374Z,98.05
2017-06-04T03:49:11.615Z,97.75
2017-06-04T03:50:12.874Z,98.14
2017-06-04T03:51:14.119Z,97.95
2017-06-04T03:52:15.372Z,98
2017-06-04T03:53:16.611Z,98.05
2017-06-04T03:54:17.868Z,98.14
2017-06-04T03:55:19.149Z,97.9
2017-06-04T03:56:20.408Z,98.52
2017-06-04T03:57:21.656Z,98.57
2017-06-04T03:58:22.908Z,98.62
2017-06-04T03:59:24.176Z,99.1
2017-06-04T04:00:25.412Z,99.1
2017-06-04T04:01:26.645Z,98.91
2017-06-04T04:02:27.932Z,98.91
2017-06-04T04:03:29.253Z,99
2017-06-04T04:04:30.492Z,99.1
2017-06-04T04:05:31.789Z,99.19
2017-06-04T04:06:33.002Z,99.1
2017-06-04T04:07:34.227Z,99.1
2017-06-04T04:08:35.480Z,99.19
2017-06-04T04:09:36.799Z,98.33
2017-06-04T04:10:38.046Z,98.43
2017-06-04T04:11:39.307Z,98.81
2017-06-04T04:12:40.671Z,98.62
2017-06-04T04:13:41.922Z,98.52
2017-06-04T04:14:43.152Z,98.71
2017-06-04T04:15:44.400Z,98.81
2017-06-04T04:16:45.636Z,98.81
2017-06-04T04:17:46.869Z,98.62
2017-06-04T04:18:48.139Z,98.81
2017-06-04T04:19:49.363Z,98.71
2017-06-04T04:20:50.625Z,98.52
2017-06-04T04:21:51.854Z,98.33
2017-06-04T04:22:53.204Z,98.62
2017-06-04T04:23:54.458Z,98.14
2017-06-04T04:24:55.818Z,98.14
2017-06-04T04:25:57.039Z,97.85
2017-06-04T04:26:58.311Z,98.33
2017-06-04T04:27:59.558Z,98.14
2017-06-04T04:29:00.785Z,97.85
2017-06-04T04:30:02.207Z,98.14
2017-06-04T04:31:03.585Z,97.85
2017-06-04T04:32:04.715Z,97.47
2017-06-04T04:33:05.950Z,97.18
2017-06-04T04:34:07.197Z,97.18
2017-06-04T04:35:08.613Z,97.09
2017-06-04T04:36:09.860Z,96.99
2017-06-04T04:37:11.101Z,97.38
2017-06-04T04:38:12.335Z,97.18
2017-06-04T04:39:13.579Z,97.28
2017-06-04T04:40:14.969Z,97.38
2017-06-04T04:41:16.342Z,96.56
2017-06-04T04:42:17.564Z,96.56
2017-06-04T04:43:18.803Z,96.84
2017-06-04T04:44:20.050Z,96.37
2017-06-04T04:45:21.360Z,96.37
2017-06-04T04:46:22.582Z,96.66
2017-06-04T04:47:23.823Z,96.37
2017-06-04T04:48:25.068Z,96.27
2017-06-04T04:49:26.347Z,95.89
2017-06-04T04:50:27.594Z,95.79
2017-06-04T04:51:28.875Z,95.41
2017-06-04T04:52:30.130Z,95.31
2017-06-04T04:53:31.433Z,95.22
2017-06-04T04:54:32.683Z,95.31
2017-06-04T04:55:33.922Z,95.31
2017-06-04T04:56:35.159Z,95.31
2017-06-04T04:57:36.398Z,95.12
2017-06-04T04:58:37.657Z,94.55
2017-06-04T04:59:38.945Z,94.64
2017-06-04T05:00:40.249Z,94.93
2017-06-04T05:01:41.684Z,94.74
2017-06-04T05:02:42.817Z,95.12
2017-06-04T05:03:44.072Z,95.03
2017-06-04T05:04:45.305Z,94.55
2017-06-04T05:05:46.614Z,94.45
2017-06-04T05:06:47.850Z,93.88
2017-06-04T05:07:49.127Z,93.83
2017-06-04T05:08:50.361Z,94.02
2017-06-04T05:09:51.632Z,93.78
2017-06-04T05:10:52.905Z,93.26
2017-06-04T05:11:54.162Z,93.44
2017-06-04T05:12:55.403Z,93.06
2017-06-04T05:13:56.692Z,92.97
2017-06-04T05:14:58.025Z,93.16
2017-06-04T05:15:59.256Z,92.39
2017-06-04T05:17:00.521Z,93.06
2017-06-04T05:18:01.764Z,92.77
2017-06-04T05:19:03.033Z,92.58
2017-06-04T05:20:04.291Z,92.49
2017-06-04T05:21:05.537Z,92.77
2017-06-04T05:22:06.806Z,92.3
2017-06-04T05:23:08.042Z,92.2
2017-06-04T05:24:09.275Z,92.39
2017-06-04T05:25:10.513Z,92.15
2017-06-04T05:26:12.110Z,92.63
2017-06-04T05:27:13.257Z,92.24
2017-06-04T05:28:14.506Z,92.82
2017-06-04T05:29:15.749Z,92.24
2017-06-04T05:30:17.010Z,91.57
2017-06-04T05:31:18.296Z,91.57
2017-06-04T05:32:19.593Z,92.05
2017-06-04T05:33:20.826Z,91.38
2017-06-04T05:34:22.074Z,91.09
2017-06-04T05:35:23.340Z,90.52
2017-06-04T05:36:24.616Z,90.08
2017-06-04T05:37:25.855Z,90.56
2017-06-04T05:38:27.156Z,89.7
2017-06-04T05:39:28.396Z,88.74
2017-06-04T05:40:29.639Z,88.74
2017-06-04T05:41:30.910Z,88.45
2017-06-04T05:42:32.143Z,88.07
2017-06-04T05:43:33.462Z,87.59
2017-06-04T05:44:34.730Z,88.07
2017-06-04T05:45:36.020Z,88.07
2017-06-04T05:46:37.239Z,87.88
2017-06-04T05:47:38.485Z,87.73
2017-06-04T05:48:39.717Z,87.49
2017-06-04T05:49:40.972Z,86.72
2017-06-04T05:50:42.247Z,87.73
2017-06-04T05:51:43.478Z,87.73
2017-06-04T05:52:44.736Z,87.54
2017-06-04T05:53:45.950Z,87.54
2017-06-04T05:54:47.191Z,86.29
2017-06-04T05:55:48.440Z,85.71
2017-06-04T05:56:49.683Z,85.37
2017-06-04T05:57:51.111Z,84.89
2017-06-04T05:58:52.351Z,84.8
2017-06-04T05:59:53.616Z,84.22
2017-06-04T06:00:54.836Z,83.54
2017-06-04T06:01:56.092Z,83.07
2017-06-04T06:02:57.345Z,83.16
2017-06-04T06:03:58.609Z,82.97
2017-06-04T06:04:59.865Z,83.26
2017-06-04T06:06:01.127Z,83.2
2017-06-04T06:07:02.365Z,83.4
2017-06-04T06:08:03.603Z,82.82
2017-06-04T06:09:04.873Z,82.24
2017-06-04T06:10:06.257Z,82.34
2017-06-04T06:11:07.522Z,82.43
2017-06-04T06:12:08.766Z,82.05
2017-06-04T06:13:10.034Z,82.05
2017-06-04T06:14:11.354Z,81.28
2017-06-04T06:15:12.609Z,81.38
2017-06-04T06:16:14.011Z,80.8
2017-06-04T06:17:15.251Z,80.8
2017-06-04T06:18:16.499Z,81.04
2017-06-04T06:19:17.744Z,80.32
2017-06-04T06:20:19.285Z,80.04
2017-06-04T06:21:20.605Z,79.55
2017-06-04T06:22:21.855Z,80.22
2017-06-04T06:23:23.112Z,79.27
2017-06-04T06:24:24.358Z,79.65
2017-06-04T06:25:25.610Z,77.92
2017-06-04T06:26:26.885Z,76.86
2017-06-04T06:27:28.145Z,76
2017-06-04T06:28:29.388Z,76.48
2017-06-04T06:29:30.657Z,77.92
2017-06-04T06:30:31.900Z,77.44
2017-06-04T06:31:33.171Z,76
2017-06-04T06:32:34.489Z,74.85
2017-06-04T06:33:35.726Z,73.25
2017-06-04T06:34:37.035Z,73.54
2017-06-04T06:35:38.282Z,73.73
2017-06-04T06:36:39.529Z,73.73
2017-06-04T06:37:40.786Z,73.92
2017-06-04T06:38:42.033Z,73.19
2017-06-04T06:39:43.319Z,73.19
2017-06-04T06:40:44.625Z,73.22
2017-06-04T06:41:45.953Z,73.42
2017-06-04T06:42:47.234Z,72.94
2017-06-04T06:43:48.464Z,72.39
2017-06-04T06:44:49.711Z,72.39
2017-06-04T06:45:50.963Z,70.79
2017-06-04T06:46:52.237Z,70.21
2017-06-04T06:47:53.474Z,69.38
2017-06-04T06:48:54.720Z,68.32
2017-06-04T06:49:55.958Z,69.71
2017-06-04T06:50:57.307Z,68.26
2017-06-04T06:51:58.716Z,66.62
2017-06-04T06:52:59.956Z,66.27
2017-06-04T06:54:01.203Z,65.4
2017-06-04T06:55:02.443Z,65.5
2017-06-04T06:56:03.703Z,65.53
2017-06-04T06:57:05.109Z,64.08
2017-06-04T06:58:06.576Z,62.82
2017-06-04T06:59:08.010Z,62.25
2017-06-04T07:00:09.238Z,61.57
2017-06-04T07:01:10.732Z,62.44
2017-06-04T07:02:12.128Z,62.86
2017-06-04T07:03:13.350Z,62.57
2017-06-04T07:04:14.595Z,61.54
2017-06-04T07:05:15.863Z,60.28
2017-06-04T07:06:17.101Z,59.83
2017-06-04T07:07:18.367Z,58.37
2017-06-04T07:08:19.619Z,57.51
2017-06-04T07:09:20.878Z,55.67
2017-06-04T07:10:22.139Z,54.15
2017-06-04T07:11:23.383Z,53.19
2017-06-04T07:12:24.616Z,53.11
2017-06-04T07:13:25.885Z,52.63
2017-06-04T07:14:27.141Z,52.34
2017-06-04T07:15:28.453Z,52.17
2017-06-04T07:16:29.717Z,52.2
2017-06-04T07:17:30.971Z,50.87
2017-06-04T07:18:32.219Z,49.24
2017-06-04T07:19:33.478Z,49
2017-06-04T07:20:34.849Z,47.86
2017-06-04T07:21:36.122Z,44.19
2017-06-04T07:22:37.355Z,44.02
2017-06-04T07:23:38.608Z,43.44
2017-06-04T07:24:39.861Z,42.58
2017-06-04T07:25:41.198Z,41.73
2017-06-04T07:26:42.488Z,41.14
2017-06-04T07:27:43.839Z,39.88
2017-06-04T07:28:45.089Z,39.41
2017-06-04T07:29:46.365Z,38.56
2017-06-04T07:30:47.607Z,38.77
2017-06-04T07:31:49.095Z,38.3
2017-06-04T07:32:50.364Z,37.15
2017-06-04T07:33:51.613Z,35.12
2017-06-04T07:34:52.870Z,35.41
2017-06-04T07:35:54.162Z,34.53
2017-06-04T07:36:55.440Z,34.44
2017-06-04T07:37:56.713Z,34.14
2017-06-04T07:38:57.970Z,34.83
2017-06-04T07:39:59.233Z,35.22
2017-06-04T07:41:00.486Z,33.28
2017-06-04T07:42:01.791Z,33.11
2017-06-04T07:43:03.101Z,32.71
2017-06-04T07:44:04.366Z,31.56
2017-06-04T07:45:05.618Z,30.19
2017-06-04T07:46:06.909Z,30.29
2017-06-04T07:47:08.195Z,30.19
2017-06-04T07:48:09.441Z,30.48
2017-06-04T07:49:10.777Z,30.29
2017-06-04T07:50:12.099Z,30.3
2017-06-04T07:51:13.251Z,30.32
2017-06-04T07:52:14.505Z,29.94
2017-06-04T07:53:15.760Z,27.88
2017-06-04T07:54:17.015Z,27.78
2017-06-04T07:55:18.270Z,27
2017-06-04T07:56:19.533Z,26.12
2017-06-04T07:57:20.784Z,26.72
2017-06-04T07:58:22.046Z,26.93
2017-06-04T07:59:23.303Z,24.9
2017-06-04T08:00:24.559Z,24.8
2017-06-04T08:01:25.810Z,24.52
2017-06-04T08:02:27.068Z,24.43
2017-06-04T08:03:28.367Z,23.95
2017-06-04T08:04:29.687Z,25.11
2017-06-04T08:05:30.903Z,25.09
2017-06-04T08:06:32.154Z,24.99
2017-06-04T08:07:33.424Z,25.77
2017-06-04T08:08:34.693Z,26.05
2017-06-04T08:09:36.075Z,26.45
2017-06-04T08:10:37.329Z,26.26
2017-06-04T08:11:38.585Z,24.71
2017-06-04T08:12:39.844Z,23.84
2017-06-04T08:13:41.091Z,22.49
2017-06-04T08:14:42.450Z,22.2
2017-06-04T08:15:43.734Z,22.6
2017-06-04T08:16:44.994Z,22.08
2017-06-04T08:17:46.231Z,23.12
2017-06-04T08:18:47.477Z,23.12
2017-06-04T08:19:48.738Z,24.38
2017-06-04T08:20:50.022Z,24.29
2017-06-04T08:21:51.353Z,23.21
2017-06-04T08:22:52.583Z,24.77
2017-06-04T08:23:53.894Z,23.7
2017-06-04T08:24:55.148Z,23.02
2017-06-04T08:25:56.444Z,22.56
2017-06-04T08:26:57.720Z,21.19
2017-06-04T08:27:58.971Z,21.59
2017-06-04T08:29:00.252Z,20.31
2017-06-04T08:30:01.517Z,22.16
2017-06-04T08:31:02.814Z,22.64
2017-06-04T08:32:04.099Z,22.26
2017-06-04T08:33:05.386Z,21.39
2017-06-04T08:34:06.648Z,20.91
2017-06-04T08:35:07.933Z,19.64
2017-06-04T08:36:09.227Z,20.26
2017-06-04T08:37:10.662Z,18.71
2017-06-04T08:38:11.891Z,19.12
2017-06-04T08:39:13.160Z,16.36
2017-06-04T08:40:14.421Z,16.86
2017-06-04T08:41:15.678Z,16.27
2017-06-04T08:42:16.938Z,16.38
2017-06-04T08:43:18.182Z,16.19
2017-06-04T08:44:19.441Z,15.8
2017-06-04T08:45:20.704Z,16.1
2017-06-04T08:46:22.071Z,14.62
2017-06-04T08:47:23.309Z,14.73
2017-06-04T08:48:24.580Z,14.73
2017-06-04T08:49:25.850Z,15.03
2017-06-04T08:50:27.105Z,15.21
2017-06-04T08:51:28.461Z,16
2017-06-04T08:52:29.744Z,16.19
2017-06-04T08:53:30.999Z,15.7
2017-06-04T08:54:32.294Z,15.11
2017-06-04T08:55:33.542Z,14.81
2017-06-04T08:56:34.906Z,15.1
2017-06-04T08:57:36.199Z,15.69
2017-06-04T08:58:37.458Z,16.83
2017-06-04T08:59:38.723Z,18.57
2017-06-04T09:00:40.008Z,19.83
2017-06-04T09:01:41.326Z,20.98
2017-06-04T09:02:42.618Z,21.66
2017-06-04T09:03:43.893Z,22.36
2017-06-04T09:04:45.178Z,20.51
2017-06-04T09:05:46.413Z,19.85
2017-06-04T09:06:47.670Z,18.79
2017-06-04T09:07:48.939Z,17.91
2017-06-04T09:08:50.336Z,17.21
2017-06-04T09:09:51.490Z,16.03
2017-06-04T09:10:52.839Z,17.29
2017-06-04T09:11:54.105Z,18.35
2017-06-04T09:12:55.462Z,19.69
2017-06-04T09:13:56.767Z,20.86
2017-06-04T09:14:58.048Z,21.16
2017-06-04T09:15:59.281Z,21.17
2017-06-04T09:17:00.540Z,20.3
2017-06-04T09:18:01.800Z,20.5
2017-06-04T09:19:03.079Z,20.49
2017-06-04T09:20:04.348Z,21.94
2017-06-04T09:21:05.636Z,22.39
2017-06-04T09:22:06.936Z,24.33
2017-06-04T09:23:08.178Z,24.15
2017-06-04T09:24:09.436Z,22.61
2017-06-04T09:25:10.684Z,22.73
2017-06-04T09:26:11.936Z,21.09
2017-06-04T09:27:13.210Z,20.21
2017-06-04T09:28:14.481Z,19.23
2017-06-04T09:29:15.775Z,19.51
2017-06-04T09:30:17.032Z,20.38
2017-06-04T09:31:18.292Z,20.76
2017-06-04T09:32:19.570Z,20.67
2017-06-04T09:33:20.941Z,21.08
2017-06-04T09:34:22.340Z,20.4
2017-06-04T09:35:23.601Z,19.64
2017-06-04T09:36:24.841Z,17.61
2017-06-04T09:37:26.101Z,17.33
2017-06-04T09:38:27.369Z,17.05
2017-06-04T09:39:28.656Z,15.69
2017-06-04T09:40:29.923Z,15.39
2017-06-04T09:41:31.183Z,14.89
2017-06-04T09:42:32.465Z,14.41
2017-06-04T09:43:33.723Z,14.12
2017-06-04T09:44:35.084Z,14.43
2017-06-04T09:45:36.398Z,13.75
2017-06-04T09:46:37.659Z,13.54
2017-06-04T09:47:38.945Z,13.53
2017-06-04T09:48:40.200Z,15.19
2017-06-04T09:49:41.529Z,16.04
2017-06-04T09:50:42.880Z,17.21
2017-06-04T09:51:44.202Z,17.5
2017-06-04T09:52:45.486Z,17.96
2017-06-04T09:53:46.719Z,19.51
2017-06-04T09:54:47.984Z,20.67
2017-06-04T09:55:49.315Z,20.25
2017-06-04T09:56:50.678Z,21.42
2017-06-04T09:57:51.923Z,21.44
2017-06-04T09:58:53.190Z,21.16
2017-06-04T09:59:54.450Z,20.29
2017-06-04T10:00:55.716Z,19.62
2017-06-04T10:01:57.025Z,19.62
2017-06-04T10:02:58.250Z,19.44
2017-06-04T10:03:59.517Z,18.86
2017-06-04T10:05:00.772Z,18.57
2017-06-04T10:06:02.041Z,17.69
2017-06-04T10:07:03.389Z,18.08
2017-06-04T10:08:04.892Z,19.23
2017-06-04T10:09:06.278Z,19.41
2017-06-04T10:10:07.547Z,20.85
2017-06-04T10:11:08.838Z,21.22
2017-06-04T10:12:10.095Z,21.81
2017-06-04T10:13:11.345Z,20.94
2017-06-04T10:14:12.652Z,20.54
2017-06-04T10:15:13.944Z,21.23
2017-06-04T10:16:15.191Z,21.23
2017-06-04T10:17:16.459Z,21.7
2017-06-04T10:18:17.752Z,22.07
2017-06-04T10:19:19.017Z,22.55
2017-06-04T10:20:20.375Z,23.71
2017-06-04T10:21:21.634Z,23.79
2017-06-04T10:22:22.876Z,25.13
2017-06-04T10:23:24.130Z,25.9
2017-06-04T10:24:25.434Z,26.28
2017-06-04T10:25:26.777Z,26.48
2017-06-04T10:26:28.051Z,26.69
2017-06-04T10:27:29.299Z,26.03
2017-06-04T10:28:30.597Z,24.22
2017-06-04T10:29:31.847Z,23.85
2017-06-04T10:30:33.162Z,22.41
2017-06-04T10:31:34.467Z,20.65
2017-06-04T10:32:35.716Z,19.37
2017-06-04T10:33:36.967Z,19.57
2017-06-04T10:34:38.246Z,20.35
2017-06-04T10:35:39.489Z,20.15
2017-06-04T10:36:40.787Z,20.93
2017-06-04T10:37:42.128Z,20.04
2017-06-04T10:38:43.370Z,19.67
2017-06-04T10:39:44.597Z,20.83
2017-06-04T10:40:45.854Z,21.32
2017-06-04T10:41:47.121Z,20.82
2017-06-04T10:42:48.390Z,20.81
2017-06-04T10:43:49.649Z,21.41
2017-06-04T10:44:50.911Z,21
2017-06-04T10:45:52.161Z,20.81
2017-06-04T10:46:53.414Z,21.47
2017-06-04T10:47:54.699Z,22.72
2017-06-04T10:48:55.958Z,23.39
2017-06-04T10:49:57.270Z,23.75
2017-06-04T10:50:58.523Z,25.2
2017-06-04T10:51:59.770Z,26.95
2017-06-04T10:53:01.083Z,25.79
2017-06-04T10:54:02.312Z,25.29
2017-06-04T10:55:03.656Z,25.18
2017-06-04T10:56:04.937Z,26.14
2017-06-04T10:57:06.182Z,27.5
2017-06-04T10:58:07.448Z,27.58
2017-06-04T10:59:08.727Z,27.57
2017-06-04T11:00:09.990Z,27.76
2017-06-04T11:01:11.226Z,28.93
2017-06-04T11:02:12.518Z,29.12
2017-06-04T11:03:13.775Z,29.01
2017-06-04T11:04:15.034Z,29.4
2017-06-04T11:05:16.293Z,29.98
2017-06-04T11:06:17.562Z,28.81
2017-06-04T11:07:18.823Z,28.72
2017-06-04T11:08:20.081Z,29.98
2017-06-04T11:09:21.327Z,29.5
2017-06-04T11:10:22.570Z,31.05
2017-06-04T11:11:23.823Z,30.29
2017-06-04T11:12:25.138Z,29.8
2017-06-04T11:13:26.365Z,30.48
2017-06-04T11:14:27.738Z,30.59
2017-06-04T11:15:29.005Z,29.82
2017-06-04T11:16:30.272Z,29.02
2017-06-04T11:17:31.513Z,28.83
2017-06-04T11:18:32.797Z,29.02
2017-06-04T11:19:34.023Z,29.69
2017-06-04T11:20:35.390Z,29.4
2017-06-04T11:21:36.647Z,29.98
2017-06-04T11:22:37.886Z,29.69
2017-06-04T11:23:39.243Z,29.69
2017-06-04T11:24:40.528Z,29.77
2017-06-04T11:25:41.775Z,29.97
2017-06-04T11:26:43.187Z,30.55
2017-06-04T11:27:44.431Z,31.52
2017-06-04T11:28:45.690Z,31.62
2017-06-04T11:29:46.948Z,32.29
2017-06-04T11:30:48.198Z,32.1
2017-06-04T11:31:49.527Z,32.78
2017-06-04T11:32:50.788Z,32.68
2017-06-04T11:33:52.074Z,32.39
2017-06-04T11:34:53.331Z,32.96
2017-06-04T11:35:54.589Z,33.15
2017-06-04T11:36:55.834Z,33.04
2017-06-04T11:37:57.099Z,33.72
2017-06-04T11:38:58.393Z,33.52
2017-06-04T11:39:59.626Z,33.42
2017-06-04T11:41:00.876Z,33.14
2017-06-04T11:42:02.124Z,33.14
2017-06-04T11:43:03.489Z,33.81
2017-06-04T11:44:04.883Z,33.6
2017-06-04T11:45:06.182Z,34.67
2017-06-04T11:46:07.432Z,35.35
2017-06-04T11:47:08.707Z,34.86
2017-06-04T11:48:09.948Z,35.25
2017-06-04T11:49:11.273Z,35.23
2017-06-04T11:50:12.558Z,35.81
2017-06-04T11:51:13.799Z,35.72
2017-06-04T11:52:15.043Z,35.99
2017-06-04T11:53:16.319Z,36.96
2017-06-04T11:54:17.610Z,36.84
2017-06-04T11:55:18.877Z,37.13
2017-06-04T11:56:20.153Z,37.62
2017-06-04T11:57:21.441Z,37.9
2017-06-04T11:58:22.694Z,38.2
2017-06-04T11:59:23.948Z,39.04
2017-06-04T12:00:25.198Z,39.82
2017-06-04T12:01:26.521Z,41.17
2017-06-04T12:02:27.780Z,41.05
2017-06-04T12:03:29.037Z,42.02
2017-06-04T12:04:30.278Z,42.41
2017-06-04T12:05:31.538Z,42.31
2017-06-04T12:06:32.859Z,42.89
2017-06-04T12:07:34.138Z,42.12
2017-06-04T12:08:35.415Z,42.6
2017-06-04T12:09:36.647Z,42.48
2017-06-04T12:10:37.893Z,42.87
2017-06-04T12:11:39.162Z,42.87
2017-06-04T12:12:40.409Z,41.42
2017-06-04T12:13:41.660Z,42.48
2017-06-04T12:14:42.964Z,42.58
2017-06-04T12:15:44.338Z,40.86
2017-06-04T12:16:45.572Z,42.02
2017-06-04T12:17:46.814Z,41.36
2017-06-04T12:18:48.076Z,40.03
2017-06-04T12:19:49.326Z,39.06
2017-06-04T12:20:50.587Z,38.91
2017-06-04T12:21:51.861Z,38.71
2017-06-04T12:22:53.154Z,37.38
2017-06-04T12:23:54.390Z,36.41
2017-06-04T12:24:55.721Z,36.6
2017-06-04T12:25:57.070Z,36.51
2017-06-04T12:26:58.368Z,37.4
2017-06-04T12:27:59.611Z,37.3
2017-06-04T12:29:00.849Z,36.04
2017-06-04T12:30:02.101Z,35.66
2017-06-04T12:31:03.368Z,35.07
2017-06-04T12:32:04.602Z,34.39
2017-06-04T12:33:05.857Z,34.01
2017-06-04T12:34:07.103Z,34.61
2017-06-04T12:35:08.350Z,34.8
2017-06-04T12:36:09.599Z,34.12
2017-06-04T12:37:10.861Z,34.02
2017-06-04T12:38:12.128Z,34.02
2017-06-04T12:39:13.491Z,34.02
2017-06-04T12:40:14.740Z,34.41
2017-06-04T12:41:15.979Z,34.02
2017-06-04T12:42:17.274Z,34.81
2017-06-04T12:43:18.516Z,34.72
2017-06-04T12:44:19.873Z,34.04
2017-06-04T12:45:21.140Z,33.38
2017-06-04T12:46:22.380Z,34.35
2017-06-04T12:47:23.634Z,34.06
2017-06-04T12:48:24.881Z,34.44
2017-06-04T12:49:26.136Z,33.65
2017-06-04T12:50:27.436Z,34.04
2017-06-04T12:51:28.717Z,34.91
2017-06-04T12:52:29.991Z,34.41
2017-06-04T12:53:31.242Z,34.89
2017-06-04T12:54:32.489Z,34.99
2017-06-04T12:55:33.745Z,35.09
2017-06-04T12:56:34.991Z,34.81
2017-06-04T12:57:36.294Z,34.62
2017-06-04T12:58:37.533Z,33.84
2017-06-04T12:59:38.790Z,33.64
2017-06-04T13:00:40.047Z,34.8
2017-06-04T13:01:41.294Z,33.64
2017-06-04T13:02:42.547Z,34.02
2017-06-04T13:03:43.802Z,34.14
2017-06-04T13:04:45.181Z,33.15
2017-06-04T13:05:46.418Z,32.59
2017-06-04T13:06:47.668Z,32.68
2017-06-04T13:07:48.935Z,32.87
2017-06-04T13:08:50.179Z,33.07
2017-06-04T13:09:51.442Z,33.26
2017-06-04T13:10:52.707Z,33.26
2017-06-04T13:11:53.946Z,32.78
2017-06-04T13:12:55.231Z,33.64
2017-06-04T13:13:56.498Z,34.22
2017-06-04T13:14:57.781Z,33.44
2017-06-04T13:15:59.064Z,33.44
2017-06-04T13:17:00.314Z,33.62